AKDT,Max TemperatureF,Mean TemperatureF,Min TemperatureF,Max Dew PointF,MeanDew PointF,Min DewpointF,Max Humidity, Mean Humidity, Min Humidity, Max Sea Level PressureIn, Mean Sea Level PressureIn, Min Sea Level PressureIn, Max VisibilityMiles, Mean VisibilityMiles, Min VisibilityMiles, Max Wind SpeedMPH, Mean Wind SpeedMPH, Max Gust SpeedMPH,PrecipitationIn, CloudCover, Events, WindDirDegrees
2013-5-1,37,32,26,25,20,16,86,65,49,29.86,29.74,29.64,10,10,10,17,8,22,0.00,7,Snow,1
2013-5-2,35,28,22,22,18,16,80,69,54,29.92,29.84,29.72,10,10,5,9,6,,0.00,6,Snow,337
2013-5-3,39,32,25,30,26,22,94,86,62,29.98,29.91,29.83,10,5,0,14,6,,0.00,8,Fog-Snow,328
2013-5-4,33,28,23,22,21,18,93,78,62,30.01,29.96,29.91,10,9,3,8,4,,0.00,8,Snow,235
2013-5-5,38,29,21,20,14,9,86,55,32,30.16,30.11,30.03,10,10,10,13,4,22,0.00,4,,267
2013-5-6,42,30,19,16,12,10,70,45,28,30.22,30.17,30.14,10,10,10,12,5,,0.00,1,,258
2013-5-7,44,34,25,19,17,14,72,48,31,30.27,30.25,30.22,10,10,10,12,5,17,0.00,2,,238
2013-5-8,48,36,25,20,17,14,69,44,27,30.34,30.29,30.25,10,10,10,14,4,20,0.00,0,,234
2013-5-9,59,42,25,26,20,18,78,44,21,30.37,30.29,30.20,10,10,10,13,2,,0.00,1,,137
2013-5-10,58,48,38,29,25,20,62,42,27,30.22,30.11,29.94,10,10,10,9,2,,0.00,5,,297
2013-5-11,59,47,35,28,26,22,72,46,25,29.94,29.78,29.66,10,10,10,10,3,17,0.00,7,,278
2013-5-12,52,44,36,29,27,21,75,53,32,29.66,29.57,29.47,10,10,10,13,6,,0.00,6,,277
2013-5-13,38,30,22,28,9,3,65,41,33,29.70,29.63,29.52,10,10,10,13,10,,0.00,4,,283
2013-5-14,41,31,21,17,13,10,69,46,28,29.68,29.66,29.63,10,10,10,12,4,,0.00,3,,278
2013-5-15,50,37,24,20,16,12,69,42,25,29.70,29.67,29.63,10,10,10,12,4,21,0.00,2,,226
2013-5-16,52,40,28,29,23,19,73,47,28,29.67,29.55,29.40,10,10,10,21,5,25,0.00,2,,136
2013-5-17,37,32,26,32,27,21,93,79,65,29.68,29.52,29.39,10,9,4,15,6,21,0.00,7,Rain-Snow,259
2013-5-18,33,28,22,21,14,3,86,63,30,30.21,29.86,29.69,10,8,4,16,11,22,0.00,7,Snow,265
2013-5-19,44,33,22,14,9,4,60,37,25,30.59,30.46,30.24,10,10,10,14,6,20,0.00,0,,280
2013-5-20,55,40,26,19,14,10,64,36,18,30.65,30.55,30.43,10,10,10,12,4,,0.00,0,,126
2013-5-21,63,45,27,26,16,12,67,33,13,30.46,30.33,30.13,10,10,10,13,4,18,0.00,0,,148
2013-5-22,66,48,30,29,23,20,75,38,19,30.13,30.04,29.96,10,10,10,14,4,18,0.00,0,,241
2013-5-23,63,48,34,40,34,26,72,50,35,30.11,30.07,30.02,10,10,10,13,6,,0.00,6,,211
2013-5-24,70,54,37,41,36,28,90,56,23,30.14,30.07,29.96,10,7,3,8,3,,0.00,2,,130
2013-5-25,76,58,40,35,30,20,74,37,14,29.98,29.89,29.80,10,10,10,8,2,,0.00,1,,276
2013-5-26,79,60,42,42,34,30,65,37,19,29.87,29.82,29.76,10,10,10,15,4,21,0.00,2,Rain,108
2013-5-27,80,64,48,42,38,36,65,38,22,29.86,29.80,29.73,10,10,10,10,4,,0.00,3,,358
2013-5-28,81,62,43,43,38,33,79,40,19,29.78,29.72,29.65,10,10,10,17,5,,0.00,2,,32
2013-5-29,81,62,45,42,37,26,82,39,13,29.69,29.66,29.63,10,10,10,10,2,,0.00,0,,271
2013-5-30,82,64,48,43,37,32,70,37,17,29.83,29.78,29.69,10,10,10,14,3,,0.00,0,,173
2013-5-31,81,64,48,44,38,29,73,38,16,29.95,29.92,29.85,10,10,10,14,6,20,0.00,1,,244